sensor_id;sensor_type;location;lat;lon;timestamp;P1;durP1;ratioP1;P2;durP2;ratioP2
47337;SDS011;33069;51.970;5.892;2022-09-09T00:00:38;9.68;;;6.63;;
47337;SDS011;33069;51.970;5.892;2022-09-09T00:03:14;9.00;;;5.63;;
47337;SDS011;33069;51.970;5.892;2022-09-09T00:05:44;9.57;;;6.78;;
47337;SDS011;33069;51.970;5.892;2022-09-09T00:08:19;11.50;;;7.10;;
47337;SDS011;33069;51.970;5.892;2022-09-09T00:10:49;9.00;;;7.00;;
47337;SDS011;33069;51.970;5.892;2022-09-09T00:13:27;10.23;;;7.38;;
47337;SDS011;33069;51.970;5.892;2022-09-09T00:21:36;12.05;;;8.35;;
47337;SDS011;33069;51.970;5.892;2022-09-09T00:24:24;13.23;;;8.57;;
47337;SDS011;33069;51.970;5.892;2022-09-09T00:27:04;11.70;;;7.90;;
47337;SDS011;33069;51.970;5.892;2022-09-09T00:29:41;13.15;;;7.95;;
47337;SDS011;33069;51.970;5.892;2022-09-09T00:32:14;10.50;;;7.85;;
47337;SDS011;33069;51.970;5.892;2022-09-09T00:35:02;13.85;;;9.45;;
47337;SDS011;33069;51.970;5.892;2022-09-09T00:37:40;13.52;;;8.73;;
47337;SDS011;33069;51.970;5.892;2022-09-09T00:40:25;9.13;;;7.30;;
47337;SDS011;33069;51.970;5.892;2022-09-09T00:43:38;12.27;;;8.18;;
47337;SDS011;33069;51.970;5.892;2022-09-09T00:46:03;9.63;;;6.85;;
47337;SDS011;33069;51.970;5.892;2022-09-09T00:51:17;9.25;;;6.30;;
47337;SDS011;33069;51.970;5.892;2022-09-09T01:02:21;7.07;;;5.75;;
47337;SDS011;33069;51.970;5.892;2022-09-09T01:05:08;12.13;;;7.38;;
47337;SDS011;33069;51.970;5.892;2022-09-09T01:07:57;13.50;;;6.75;;
47337;SDS011;33069;51.970;5.892;2022-09-09T01:10:34;11.25;;;5.30;;
47337;SDS011;33069;51.970;5.892;2022-09-09T01:13:02;8.55;;;6.40;;
47337;SDS011;33069;51.970;5.892;2022-09-09T01:15:34;10.32;;;6.35;;
47337;SDS011;33069;51.970;5.892;2022-09-09T01:20:30;7.72;;;5.05;;
47337;SDS011;33069;51.970;5.892;2022-09-09T01:26:04;11.50;;;4.45;;
47337;SDS011;33069;51.970;5.892;2022-09-09T01:28:33;9.02;;;4.82;;
47337;SDS011;33069;51.970;5.892;2022-09-09T01:31:02;8.23;;;5.53;;
47337;SDS011;33069;51.970;5.892;2022-09-09T01:33:30;7.80;;;4.35;;
47337;SDS011;33069;51.970;5.892;2022-09-09T01:39:00;7.72;;;4.78;;
47337;SDS011;33069;51.970;5.892;2022-09-09T01:41:26;9.60;;;5.07;;
47337;SDS011;33069;51.970;5.892;2022-09-09T01:43:53;8.55;;;5.55;;
47337;SDS011;33069;51.970;5.892;2022-09-09T01:46:21;11.00;;;7.90;;
47337;SDS011;33069;51.970;5.892;2022-09-09T01:48:48;11.88;;;6.50;;
47337;SDS011;33069;51.970;5.892;2022-09-09T01:51:16;8.38;;;6.55;;
47337;SDS011;33069;51.970;5.892;2022-09-09T01:53:42;10.65;;;6.85;;
47337;SDS011;33069;51.970;5.892;2022-09-09T02:07:15;15.10;;;8.55;;
47337;SDS011;33069;51.970;5.892;2022-09-09T02:09:59;10.73;;;8.30;;
47337;SDS011;33069;51.970;5.892;2022-09-09T02:12:40;12.60;;;7.53;;
47337;SDS011;33069;51.970;5.892;2022-09-09T02:15:13;10.38;;;7.93;;
47337;SDS011;33069;51.970;5.892;2022-09-09T02:17:45;11.95;;;8.10;;
47337;SDS011;33069;51.970;5.892;2022-09-09T02:20:14;13.45;;;6.65;;
47337;SDS011;33069;51.970;5.892;2022-09-09T02:22:42;12.25;;;9.15;;
47337;SDS011;33069;51.970;5.892;2022-09-09T02:25:11;9.07;;;7.95;;
47337;SDS011;33069;51.970;5.892;2022-09-09T02:27:40;10.57;;;7.18;;
47337;SDS011;33069;51.970;5.892;2022-09-09T02:30:11;11.23;;;6.93;;
47337;SDS011;33069;51.970;5.892;2022-09-09T02:32:37;13.98;;;7.22;;
47337;SDS011;33069;51.970;5.892;2022-09-09T02:35:12;10.23;;;6.65;;
47337;SDS011;33069;51.970;5.892;2022-09-09T02:37:42;9.85;;;7.07;;
47337;SDS011;33069;51.970;5.892;2022-09-09T02:40:13;11.75;;;6.90;;
47337;SDS011;33069;51.970;5.892;2022-09-09T02:42:41;9.10;;;7.10;;
47337;SDS011;33069;51.970;5.892;2022-09-09T02:45:08;8.05;;;6.97;;
47337;SDS011;33069;51.970;5.892;2022-09-09T02:47:43;13.10;;;7.82;;
47337;SDS011;33069;51.970;5.892;2022-09-09T02:50:33;12.90;;;9.00;;
47337;SDS011;33069;51.970;5.892;2022-09-09T02:55:48;13.05;;;8.05;;
47337;SDS011;33069;51.970;5.892;2022-09-09T02:58:17;14.38;;;8.82;;
47337;SDS011;33069;51.970;5.892;2022-09-09T03:00:47;12.65;;;8.57;;
47337;SDS011;33069;51.970;5.892;2022-09-09T03:03:15;9.45;;;6.25;;
47337;SDS011;33069;51.970;5.892;2022-09-09T03:05:42;13.60;;;7.93;;
47337;SDS011;33069;51.970;5.892;2022-09-09T03:08:08;10.07;;;7.88;;
47337;SDS011;33069;51.970;5.892;2022-09-09T03:10:34;11.95;;;7.10;;
47337;SDS011;33069;51.970;5.892;2022-09-09T03:13:02;12.00;;;6.50;;
47337;SDS011;33069;51.970;5.892;2022-09-09T03:15:29;9.82;;;6.93;;
47337;SDS011;33069;51.970;5.892;2022-09-09T03:17:56;11.60;;;7.00;;
47337;SDS011;33069;51.970;5.892;2022-09-09T03:20:26;13.02;;;7.20;;
47337;SDS011;33069;51.970;5.892;2022-09-09T03:22:53;10.02;;;7.50;;
47337;SDS011;33069;51.970;5.892;2022-09-09T03:25:20;11.57;;;7.22;;
47337;SDS011;33069;51.970;5.892;2022-09-09T03:27:48;10.85;;;8.10;;
47337;SDS011;33069;51.970;5.892;2022-09-09T03:30:14;9.95;;;7.47;;
47337;SDS011;33069;51.970;5.892;2022-09-09T03:32:40;13.77;;;8.57;;
47337;SDS011;33069;51.970;5.892;2022-09-09T03:35:06;13.45;;;8.32;;
47337;SDS011;33069;51.970;5.892;2022-09-09T03:37:33;11.57;;;6.82;;
47337;SDS011;33069;51.970;5.892;2022-09-09T03:39:58;12.90;;;6.45;;
47337;SDS011;33069;51.970;5.892;2022-09-09T03:42:25;14.82;;;9.60;;
47337;SDS011;33069;51.970;5.892;2022-09-09T03:44:51;13.45;;;7.55;;
47337;SDS011;33069;51.970;5.892;2022-09-09T03:47:17;11.55;;;7.88;;
47337;SDS011;33069;51.970;5.892;2022-09-09T03:49:43;11.63;;;7.97;;
47337;SDS011;33069;51.970;5.892;2022-09-09T03:52:09;12.70;;;7.70;;
47337;SDS011;33069;51.970;5.892;2022-09-09T03:54:35;11.00;;;7.85;;
47337;SDS011;33069;51.970;5.892;2022-09-09T03:57:01;14.80;;;7.90;;
47337;SDS011;33069;51.970;5.892;2022-09-09T03:59:28;13.00;;;6.68;;
47337;SDS011;33069;51.970;5.892;2022-09-09T04:01:54;12.93;;;7.75;;
47337;SDS011;33069;51.970;5.892;2022-09-09T04:04:19;15.25;;;9.90;;
47337;SDS011;33069;51.970;5.892;2022-09-09T04:06:46;11.98;;;7.72;;
47337;SDS011;33069;51.970;5.892;2022-09-09T04:09:13;13.02;;;7.80;;
47337;SDS011;33069;51.970;5.892;2022-09-09T04:11:39;14.52;;;9.13;;
47337;SDS011;33069;51.970;5.892;2022-09-09T04:14:05;9.98;;;7.22;;
47337;SDS011;33069;51.970;5.892;2022-09-09T04:16:31;11.15;;;8.50;;
47337;SDS011;33069;51.970;5.892;2022-09-09T04:18:58;10.75;;;8.80;;
47337;SDS011;33069;51.970;5.892;2022-09-09T04:21:25;12.90;;;8.55;;
47337;SDS011;33069;51.970;5.892;2022-09-09T04:23:51;13.23;;;9.25;;
47337;SDS011;33069;51.970;5.892;2022-09-09T04:26:16;14.38;;;8.77;;
47337;SDS011;33069;51.970;5.892;2022-09-09T04:28:43;16.67;;;8.63;;
47337;SDS011;33069;51.970;5.892;2022-09-09T04:31:10;14.70;;;7.90;;
47337;SDS011;33069;51.970;5.892;2022-09-09T04:33:41;18.60;;;8.88;;
47337;SDS011;33069;51.970;5.892;2022-09-09T04:36:07;14.93;;;7.60;;
47337;SDS011;33069;51.970;5.892;2022-09-09T04:38:33;20.15;;;8.80;;
47337;SDS011;33069;51.970;5.892;2022-09-09T04:40:59;11.25;;;7.65;;
47337;SDS011;33069;51.970;5.892;2022-09-09T04:43:24;14.52;;;6.88;;
47337;SDS011;33069;51.970;5.892;2022-09-09T04:45:51;11.32;;;7.38;;
47337;SDS011;33069;51.970;5.892;2022-09-09T04:48:17;11.77;;;6.50;;
47337;SDS011;33069;51.970;5.892;2022-09-09T04:50:43;14.10;;;7.10;;
47337;SDS011;33069;51.970;5.892;2022-09-09T04:53:09;14.10;;;7.03;;
47337;SDS011;33069;51.970;5.892;2022-09-09T04:55:35;12.05;;;6.43;;
47337;SDS011;33069;51.970;5.892;2022-09-09T04:58:04;14.02;;;6.68;;
47337;SDS011;33069;51.970;5.892;2022-09-09T05:00:30;11.68;;;7.63;;
47337;SDS011;33069;51.970;5.892;2022-09-09T05:02:56;9.98;;;6.22;;
47337;SDS011;33069;51.970;5.892;2022-09-09T05:05:22;14.95;;;6.68;;
47337;SDS011;33069;51.970;5.892;2022-09-09T05:07:48;16.80;;;7.10;;
47337;SDS011;33069;51.970;5.892;2022-09-09T05:10:14;13.80;;;6.45;;
47337;SDS011;33069;51.970;5.892;2022-09-09T05:12:41;15.35;;;5.93;;
47337;SDS011;33069;51.970;5.892;2022-09-09T05:15:07;13.18;;;6.80;;
47337;SDS011;33069;51.970;5.892;2022-09-09T05:17:34;14.70;;;6.47;;
47337;SDS011;33069;51.970;5.892;2022-09-09T05:20:00;11.18;;;6.70;;
47337;SDS011;33069;51.970;5.892;2022-09-09T05:22:28;13.27;;;5.90;;
47337;SDS011;33069;51.970;5.892;2022-09-09T05:24:55;15.93;;;7.03;;
47337;SDS011;33069;51.970;5.892;2022-09-09T05:27:20;13.02;;;5.68;;
47337;SDS011;33069;51.970;5.892;2022-09-09T05:29:46;12.82;;;5.85;;
47337;SDS011;33069;51.970;5.892;2022-09-09T05:32:12;16.98;;;6.30;;
47337;SDS011;33069;51.970;5.892;2022-09-09T05:34:42;11.52;;;5.85;;
47337;SDS011;33069;51.970;5.892;2022-09-09T05:37:07;14.50;;;5.90;;
47337;SDS011;33069;51.970;5.892;2022-09-09T05:39:33;15.38;;;5.78;;
47337;SDS011;33069;51.970;5.892;2022-09-09T05:42:01;9.93;;;5.95;;
47337;SDS011;33069;51.970;5.892;2022-09-09T05:44:29;14.63;;;5.60;;
47337;SDS011;33069;51.970;5.892;2022-09-09T05:46:54;12.32;;;5.95;;
47337;SDS011;33069;51.970;5.892;2022-09-09T05:49:20;12.63;;;6.38;;
47337;SDS011;33069;51.970;5.892;2022-09-09T05:51:46;11.45;;;6.22;;
47337;SDS011;33069;51.970;5.892;2022-09-09T05:54:13;10.68;;;5.85;;
47337;SDS011;33069;51.970;5.892;2022-09-09T05:56:40;12.25;;;5.88;;
47337;SDS011;33069;51.970;5.892;2022-09-09T05:59:06;12.10;;;6.18;;
47337;SDS011;33069;51.970;5.892;2022-09-09T06:01:33;15.23;;;6.70;;
47337;SDS011;33069;51.970;5.892;2022-09-09T06:04:00;15.07;;;7.13;;
47337;SDS011;33069;51.970;5.892;2022-09-09T06:06:29;17.08;;;6.40;;
47337;SDS011;33069;51.970;5.892;2022-09-09T06:09:02;11.35;;;5.68;;
47337;SDS011;33069;51.970;5.892;2022-09-09T06:11:31;10.93;;;6.20;;
47337;SDS011;33069;51.970;5.892;2022-09-09T06:13:58;17.25;;;6.28;;
47337;SDS011;33069;51.970;5.892;2022-09-09T06:16:24;12.65;;;5.55;;
47337;SDS011;33069;51.970;5.892;2022-09-09T06:18:52;13.02;;;5.88;;
47337;SDS011;33069;51.970;5.892;2022-09-09T06:21:20;12.20;;;5.78;;
47337;SDS011;33069;51.970;5.892;2022-09-09T06:23:47;14.18;;;5.93;;
47337;SDS011;33069;51.970;5.892;2022-09-09T06:28:39;12.48;;;5.50;;
47337;SDS011;33069;51.970;5.892;2022-09-09T06:31:06;13.85;;;6.30;;
47337;SDS011;33069;51.970;5.892;2022-09-09T06:33:34;11.23;;;5.15;;
47337;SDS011;33069;51.970;5.892;2022-09-09T06:36:07;13.82;;;5.60;;
47337;SDS011;33069;51.970;5.892;2022-09-09T06:38:36;11.30;;;4.97;;
47337;SDS011;33069;51.970;5.892;2022-09-09T06:41:02;11.82;;;4.53;;
47337;SDS011;33069;51.970;5.892;2022-09-09T06:43:30;13.00;;;5.30;;
47337;SDS011;33069;51.970;5.892;2022-09-09T06:45:57;11.88;;;4.13;;
47337;SDS011;33069;51.970;5.892;2022-09-09T06:48:24;10.93;;;4.55;;
47337;SDS011;33069;51.970;5.892;2022-09-09T06:50:51;8.43;;;4.28;;
47337;SDS011;33069;51.970;5.892;2022-09-09T06:53:44;17.65;;;5.05;;
47337;SDS011;33069;51.970;5.892;2022-09-09T06:58:37;11.55;;;3.85;;
47337;SDS011;33069;51.970;5.892;2022-09-09T07:01:14;11.30;;;4.07;;
47337;SDS011;33069;51.970;5.892;2022-09-09T07:03:42;13.90;;;3.92;;
47337;SDS011;33069;51.970;5.892;2022-09-09T07:06:14;9.52;;;3.70;;
47337;SDS011;33069;51.970;5.892;2022-09-09T07:08:42;14.10;;;3.78;;
47337;SDS011;33069;51.970;5.892;2022-09-09T07:11:09;13.25;;;3.80;;
47337;SDS011;33069;51.970;5.892;2022-09-09T07:13:36;14.07;;;3.40;;
47337;SDS011;33069;51.970;5.892;2022-09-09T07:16:12;12.68;;;3.53;;
47337;SDS011;33069;51.970;5.892;2022-09-09T07:18:41;12.43;;;3.92;;
47337;SDS011;33069;51.970;5.892;2022-09-09T07:21:09;9.07;;;3.70;;
47337;SDS011;33069;51.970;5.892;2022-09-09T07:23:37;14.18;;;3.85;;
47337;SDS011;33069;51.970;5.892;2022-09-09T07:26:14;13.75;;;4.38;;
47337;SDS011;33069;51.970;5.892;2022-09-09T07:28:41;10.80;;;3.55;;
47337;SDS011;33069;51.970;5.892;2022-09-09T07:31:13;12.05;;;3.83;;
47337;SDS011;33069;51.970;5.892;2022-09-09T07:33:46;16.55;;;4.28;;
47337;SDS011;33069;51.970;5.892;2022-09-09T07:36:14;14.27;;;3.60;;
47337;SDS011;33069;51.970;5.892;2022-09-09T07:38:57;12.75;;;4.10;;
47337;SDS011;33069;51.970;5.892;2022-09-09T07:41:32;10.73;;;3.83;;
47337;SDS011;33069;51.970;5.892;2022-09-09T07:44:03;10.25;;;3.80;;
47337;SDS011;33069;51.970;5.892;2022-09-09T07:46:38;10.45;;;3.92;;
47337;SDS011;33069;51.970;5.892;2022-09-09T07:49:04;12.88;;;3.38;;
47337;SDS011;33069;51.970;5.892;2022-09-09T07:51:32;13.27;;;3.85;;
47337;SDS011;33069;51.970;5.892;2022-09-09T07:54:00;10.35;;;4.13;;
47337;SDS011;33069;51.970;5.892;2022-09-09T07:56:30;13.13;;;4.20;;
47337;SDS011;33069;51.970;5.892;2022-09-09T07:58:57;10.98;;;3.35;;
47337;SDS011;33069;51.970;5.892;2022-09-09T08:01:25;19.60;;;5.10;;
47337;SDS011;33069;51.970;5.892;2022-09-09T08:03:55;12.55;;;3.22;;
47337;SDS011;33069;51.970;5.892;2022-09-09T08:06:26;12.45;;;3.70;;
47337;SDS011;33069;51.970;5.892;2022-09-09T08:08:54;8.35;;;3.55;;
47337;SDS011;33069;51.970;5.892;2022-09-09T08:11:21;14.02;;;3.45;;
47337;SDS011;33069;51.970;5.892;2022-09-09T08:13:48;14.35;;;3.53;;
47337;SDS011;33069;51.970;5.892;2022-09-09T08:16:17;17.63;;;3.90;;
47337;SDS011;33069;51.970;5.892;2022-09-09T08:18:46;13.18;;;3.50;;
47337;SDS011;33069;51.970;5.892;2022-09-09T08:21:18;16.35;;;3.47;;
47337;SDS011;33069;51.970;5.892;2022-09-09T08:23:46;16.02;;;4.50;;
47337;SDS011;33069;51.970;5.892;2022-09-09T08:26:17;11.13;;;3.00;;
47337;SDS011;33069;51.970;5.892;2022-09-09T08:31:15;14.27;;;3.42;;
47337;SDS011;33069;51.970;5.892;2022-09-09T08:33:42;15.43;;;3.50;;
47337;SDS011;33069;51.970;5.892;2022-09-09T08:36:11;16.15;;;3.30;;
47337;SDS011;33069;51.970;5.892;2022-09-09T08:38:40;9.40;;;3.05;;
47337;SDS011;33069;51.970;5.892;2022-09-09T08:44:40;10.27;;;2.70;;
47337;SDS011;33069;51.970;5.892;2022-09-09T09:03:45;8.30;;;2.38;;
47337;SDS011;33069;51.970;5.892;2022-09-09T09:06:30;9.48;;;2.55;;
47337;SDS011;33069;51.970;5.892;2022-09-09T09:09:23;12.90;;;2.92;;
47337;SDS011;33069;51.970;5.892;2022-09-09T09:11:53;9.90;;;2.30;;
47337;SDS011;33069;51.970;5.892;2022-09-09T09:14:26;12.13;;;2.92;;
47337;SDS011;33069;51.970;5.892;2022-09-09T09:19:34;10.43;;;2.90;;
47337;SDS011;33069;51.970;5.892;2022-09-09T09:22:25;7.10;;;2.00;;
47337;SDS011;33069;51.970;5.892;2022-09-09T09:27:49;8.90;;;2.53;;
47337;SDS011;33069;51.970;5.892;2022-09-09T09:30:18;9.15;;;2.40;;
47337;SDS011;33069;51.970;5.892;2022-09-09T09:32:54;10.25;;;3.15;;
47337;SDS011;33069;51.970;5.892;2022-09-09T09:35:24;11.98;;;2.60;;
47337;SDS011;33069;51.970;5.892;2022-09-09T09:37:50;5.45;;;2.10;;
47337;SDS011;33069;51.970;5.892;2022-09-09T09:40:19;7.63;;;2.35;;
47337;SDS011;33069;51.970;5.892;2022-09-09T09:45:25;11.10;;;2.80;;
47337;SDS011;33069;51.970;5.892;2022-09-09T09:48:02;9.82;;;2.58;;
47337;SDS011;33069;51.970;5.892;2022-09-09T09:50:30;12.25;;;2.38;;
47337;SDS011;33069;51.970;5.892;2022-09-09T09:52:57;9.20;;;2.00;;
47337;SDS011;33069;51.970;5.892;2022-09-09T09:55:29;11.20;;;3.28;;
47337;SDS011;33069;51.970;5.892;2022-09-09T09:58:00;13.90;;;2.60;;
47337;SDS011;33069;51.970;5.892;2022-09-09T10:00:28;11.98;;;2.15;;
47337;SDS011;33069;51.970;5.892;2022-09-09T10:02:54;11.15;;;2.15;;
47337;SDS011;33069;51.970;5.892;2022-09-09T10:05:22;10.98;;;2.28;;
47337;SDS011;33069;51.970;5.892;2022-09-09T10:08:01;8.18;;;2.35;;
47337;SDS011;33069;51.970;5.892;2022-09-09T10:10:34;8.27;;;2.13;;
47337;SDS011;33069;51.970;5.892;2022-09-09T10:15:52;9.77;;;2.10;;
47337;SDS011;33069;51.970;5.892;2022-09-09T10:24:13;12.35;;;3.13;;
47337;SDS011;33069;51.970;5.892;2022-09-09T10:32:37;5.75;;;1.88;;
47337;SDS011;33069;51.970;5.892;2022-09-09T10:38:26;8.75;;;2.03;;
47337;SDS011;33069;51.970;5.892;2022-09-09T10:41:09;9.77;;;2.22;;
47337;SDS011;33069;51.970;5.892;2022-09-09T10:57:55;14.85;;;4.05;;
47337;SDS011;33069;51.970;5.892;2022-09-09T11:00:27;9.98;;;2.58;;
47337;SDS011;33069;51.970;5.892;2022-09-09T11:03:09;12.57;;;3.78;;
47337;SDS011;33069;51.970;5.892;2022-09-09T11:05:57;8.00;;;2.10;;
47337;SDS011;33069;51.970;5.892;2022-09-09T11:08:32;8.23;;;2.78;;
47337;SDS011;33069;51.970;5.892;2022-09-09T11:11:03;11.93;;;3.42;;
47337;SDS011;33069;51.970;5.892;2022-09-09T11:13:40;10.70;;;3.15;;
47337;SDS011;33069;51.970;5.892;2022-09-09T11:18:46;7.90;;;2.63;;
47337;SDS011;33069;51.970;5.892;2022-09-09T11:21:17;10.13;;;2.55;;
47337;SDS011;33069;51.970;5.892;2022-09-09T11:23:59;9.82;;;2.53;;
47337;SDS011;33069;51.970;5.892;2022-09-09T11:26:41;10.20;;;3.10;;
47337;SDS011;33069;51.970;5.892;2022-09-09T11:39:47;6.03;;;2.10;;
47337;SDS011;33069;51.970;5.892;2022-09-09T11:43:00;9.43;;;2.80;;
47337;SDS011;33069;51.970;5.892;2022-09-09T11:45:42;6.72;;;1.75;;
47337;SDS011;33069;51.970;5.892;2022-09-09T11:51:05;5.43;;;2.03;;
47337;SDS011;33069;51.970;5.892;2022-09-09T11:53:35;7.40;;;2.23;;
47337;SDS011;33069;51.970;5.892;2022-09-09T11:56:27;7.32;;;2.47;;
47337;SDS011;33069;51.970;5.892;2022-09-09T11:58:57;10.95;;;2.67;;
47337;SDS011;33069;51.970;5.892;2022-09-09T12:04:49;7.25;;;2.10;;
47337;SDS011;33069;51.970;5.892;2022-09-09T12:06:59;4.82;;;2.20;;
47337;SDS011;33069;51.970;5.892;2022-09-09T12:09:45;9.15;;;2.80;;
47337;SDS011;33069;51.970;5.892;2022-09-09T12:12:22;8.48;;;2.55;;
47337;SDS011;33069;51.970;5.892;2022-09-09T12:15:00;10.75;;;2.28;;
47337;SDS011;33069;51.970;5.892;2022-09-09T12:17:45;10.05;;;2.42;;
47337;SDS011;33069;51.970;5.892;2022-09-09T12:22:43;7.40;;;2.30;;
47337;SDS011;33069;51.970;5.892;2022-09-09T12:30:56;7.05;;;1.90;;
47337;SDS011;33069;51.970;5.892;2022-09-09T12:34:02;5.20;;;2.03;;
47337;SDS011;33069;51.970;5.892;2022-09-09T12:36:51;10.02;;;1.90;;
47337;SDS011;33069;51.970;5.892;2022-09-09T12:39:27;5.63;;;1.87;;
47337;SDS011;33069;51.970;5.892;2022-09-09T12:41:56;6.25;;;2.30;;
47337;SDS011;33069;51.970;5.892;2022-09-09T12:44:23;9.82;;;2.53;;
47337;SDS011;33069;51.970;5.892;2022-09-09T12:46:50;6.78;;;2.13;;
47337;SDS011;33069;51.970;5.892;2022-09-09T12:49:28;8.35;;;2.50;;
47337;SDS011;33069;51.970;5.892;2022-09-09T12:52:00;7.60;;;1.98;;
47337;SDS011;33069;51.970;5.892;2022-09-09T12:54:30;6.75;;;2.20;;
47337;SDS011;33069;51.970;5.892;2022-09-09T12:56:58;9.68;;;2.60;;
47337;SDS011;33069;51.970;5.892;2022-09-09T12:59:25;6.70;;;2.53;;
47337;SDS011;33069;51.970;5.892;2022-09-09T13:01:59;9.10;;;2.30;;
47337;SDS011;33069;51.970;5.892;2022-09-09T13:04:25;4.88;;;1.90;;
47337;SDS011;33069;51.970;5.892;2022-09-09T13:06:52;4.10;;;1.98;;
47337;SDS011;33069;51.970;5.892;2022-09-09T13:09:17;6.50;;;2.30;;
47337;SDS011;33069;51.970;5.892;2022-09-09T13:11:53;8.20;;;2.72;;
47337;SDS011;33069;51.970;5.892;2022-09-09T13:14:34;6.75;;;2.15;;
47337;SDS011;33069;51.970;5.892;2022-09-09T13:17:05;9.15;;;2.50;;
47337;SDS011;33069;51.970;5.892;2022-09-09T13:19:33;6.68;;;2.42;;
47337;SDS011;33069;51.970;5.892;2022-09-09T13:22:14;9.88;;;2.50;;
47337;SDS011;33069;51.970;5.892;2022-09-09T13:24:45;5.40;;;2.45;;
47337;SDS011;33069;51.970;5.892;2022-09-09T13:27:28;8.18;;;3.15;;
47337;SDS011;33069;51.970;5.892;2022-09-09T13:29:56;5.47;;;2.90;;
47337;SDS011;33069;51.970;5.892;2022-09-09T13:32:22;6.10;;;2.75;;
47337;SDS011;33069;51.970;5.892;2022-09-09T13:34:53;7.63;;;2.88;;
47337;SDS011;33069;51.970;5.892;2022-09-09T13:40:01;8.45;;;3.13;;
47337;SDS011;33069;51.970;5.892;2022-09-09T13:42:30;9.13;;;3.60;;
47337;SDS011;33069;51.970;5.892;2022-09-09T13:45:00;9.07;;;2.78;;
47337;SDS011;33069;51.970;5.892;2022-09-09T13:47:28;7.55;;;2.70;;
47337;SDS011;33069;51.970;5.892;2022-09-09T13:49:57;7.60;;;2.53;;
47337;SDS011;33069;51.970;5.892;2022-09-09T13:52:22;6.97;;;2.40;;
47337;SDS011;33069;51.970;5.892;2022-09-09T13:54:49;7.82;;;2.50;;
47337;SDS011;33069;51.970;5.892;2022-09-09T13:57:25;6.22;;;2.50;;
47337;SDS011;33069;51.970;5.892;2022-09-09T13:59:51;8.75;;;2.65;;
47337;SDS011;33069;51.970;5.892;2022-09-09T14:02:19;5.75;;;2.55;;
47337;SDS011;33069;51.970;5.892;2022-09-09T14:04:48;6.18;;;2.28;;
47337;SDS011;33069;51.970;5.892;2022-09-09T14:07:16;7.25;;;2.10;;
47337;SDS011;33069;51.970;5.892;2022-09-09T14:09:43;7.07;;;2.05;;
47337;SDS011;33069;51.970;5.892;2022-09-09T14:12:10;4.55;;;2.10;;
47337;SDS011;33069;51.970;5.892;2022-09-09T14:14:37;4.05;;;1.80;;
47337;SDS011;33069;51.970;5.892;2022-09-09T14:17:03;7.97;;;2.10;;
47337;SDS011;33069;51.970;5.892;2022-09-09T14:19:29;7.65;;;2.08;;
47337;SDS011;33069;51.970;5.892;2022-09-09T14:21:56;7.72;;;2.00;;
47337;SDS011;33069;51.970;5.892;2022-09-09T14:24:23;5.93;;;1.60;;
47337;SDS011;33069;51.970;5.892;2022-09-09T14:26:49;4.18;;;1.92;;
47337;SDS011;33069;51.970;5.892;2022-09-09T14:29:15;5.70;;;1.90;;
47337;SDS011;33069;51.970;5.892;2022-09-09T14:31:41;8.13;;;2.55;;
47337;SDS011;33069;51.970;5.892;2022-09-09T14:34:07;6.18;;;1.90;;
47337;SDS011;33069;51.970;5.892;2022-09-09T14:36:32;8.45;;;2.20;;
47337;SDS011;33069;51.970;5.892;2022-09-09T14:38:58;6.45;;;2.20;;
47337;SDS011;33069;51.970;5.892;2022-09-09T14:41:24;7.03;;;1.98;;
47337;SDS011;33069;51.970;5.892;2022-09-09T14:43:50;5.65;;;2.22;;
47337;SDS011;33069;51.970;5.892;2022-09-09T14:46:17;5.85;;;1.80;;
47337;SDS011;33069;51.970;5.892;2022-09-09T14:48:44;8.93;;;2.13;;
47337;SDS011;33069;51.970;5.892;2022-09-09T14:51:17;5.80;;;2.22;;
47337;SDS011;33069;51.970;5.892;2022-09-09T14:53:45;5.75;;;1.63;;
47337;SDS011;33069;51.970;5.892;2022-09-09T14:56:12;6.55;;;1.98;;
47337;SDS011;33069;51.970;5.892;2022-09-09T14:58:41;7.00;;;2.00;;
47337;SDS011;33069;51.970;5.892;2022-09-09T15:01:07;5.82;;;2.00;;
47337;SDS011;33069;51.970;5.892;2022-09-09T15:03:35;11.25;;;4.20;;
47337;SDS011;33069;51.970;5.892;2022-09-09T15:06:10;8.75;;;4.03;;
47337;SDS011;33069;51.970;5.892;2022-09-09T15:08:38;7.28;;;2.13;;
47337;SDS011;33069;51.970;5.892;2022-09-09T15:11:08;9.57;;;3.42;;
47337;SDS011;33069;51.970;5.892;2022-09-09T15:13:36;8.63;;;2.50;;
47337;SDS011;33069;51.970;5.892;2022-09-09T15:16:07;7.30;;;2.38;;
47337;SDS011;33069;51.970;5.892;2022-09-09T15:18:41;8.27;;;2.42;;
47337;SDS011;33069;51.970;5.892;2022-09-09T15:21:15;11.07;;;4.75;;
47337;SDS011;33069;51.970;5.892;2022-09-09T15:23:44;9.40;;;4.45;;
47337;SDS011;33069;51.970;5.892;2022-09-09T15:26:10;7.25;;;2.70;;
47337;SDS011;33069;51.970;5.892;2022-09-09T15:32:06;8.55;;;2.90;;
47337;SDS011;33069;51.970;5.892;2022-09-09T15:34:32;8.48;;;2.78;;
47337;SDS011;33069;51.970;5.892;2022-09-09T15:36:58;10.10;;;2.97;;
47337;SDS011;33069;51.970;5.892;2022-09-09T15:39:25;7.82;;;2.28;;
47337;SDS011;33069;51.970;5.892;2022-09-09T15:41:51;11.02;;;4.03;;
47337;SDS011;33069;51.970;5.892;2022-09-09T15:44:17;8.30;;;2.53;;
47337;SDS011;33069;51.970;5.892;2022-09-09T15:51:38;10.20;;;3.10;;
47337;SDS011;33069;51.970;5.892;2022-09-09T15:54:07;10.57;;;3.65;;
47337;SDS011;33069;51.970;5.892;2022-09-09T15:56:34;6.68;;;3.80;;
47337;SDS011;33069;51.970;5.892;2022-09-09T15:59:00;9.48;;;3.70;;
47337;SDS011;33069;51.970;5.892;2022-09-09T16:01:28;8.10;;;4.57;;
47337;SDS011;33069;51.970;5.892;2022-09-09T16:03:55;7.45;;;2.75;;
47337;SDS011;33069;51.970;5.892;2022-09-09T16:06:22;10.75;;;2.83;;
47337;SDS011;33069;51.970;5.892;2022-09-09T16:08:50;16.33;;;4.70;;
47337;SDS011;33069;51.970;5.892;2022-09-09T16:11:21;13.95;;;4.93;;
47337;SDS011;33069;51.970;5.892;2022-09-09T16:13:49;11.77;;;5.35;;
47337;SDS011;33069;51.970;5.892;2022-09-09T16:16:17;13.57;;;6.82;;
47337;SDS011;33069;51.970;5.892;2022-09-09T16:18:47;15.48;;;5.88;;
47337;SDS011;33069;51.970;5.892;2022-09-09T16:23:45;18.42;;;7.20;;
47337;SDS011;33069;51.970;5.892;2022-09-09T16:26:12;14.43;;;6.22;;
47337;SDS011;33069;51.970;5.892;2022-09-09T16:28:39;14.50;;;6.57;;
47337;SDS011;33069;51.970;5.892;2022-09-09T16:31:05;12.02;;;6.15;;
47337;SDS011;33069;51.970;5.892;2022-09-09T16:33:32;12.60;;;6.03;;
47337;SDS011;33069;51.970;5.892;2022-09-09T16:35:58;11.00;;;5.85;;
47337;SDS011;33069;51.970;5.892;2022-09-09T16:38:29;11.23;;;5.05;;
47337;SDS011;33069;51.970;5.892;2022-09-09T16:40:58;8.95;;;4.38;;
47337;SDS011;33069;51.970;5.892;2022-09-09T16:43:25;9.85;;;4.13;;
47337;SDS011;33069;51.970;5.892;2022-09-09T16:45:50;8.02;;;5.57;;
47337;SDS011;33069;51.970;5.892;2022-09-09T16:48:16;11.07;;;6.57;;
47337;SDS011;33069;51.970;5.892;2022-09-09T16:50:42;9.30;;;3.83;;
47337;SDS011;33069;51.970;5.892;2022-09-09T16:53:08;5.18;;;3.47;;
47337;SDS011;33069;51.970;5.892;2022-09-09T16:55:37;9.30;;;5.57;;
47337;SDS011;33069;51.970;5.892;2022-09-09T16:58:04;7.07;;;3.08;;
47337;SDS011;33069;51.970;5.892;2022-09-09T17:00:30;10.57;;;7.05;;
47337;SDS011;33069;51.970;5.892;2022-09-09T17:02:56;10.82;;;7.07;;
47337;SDS011;33069;51.970;5.892;2022-09-09T17:05:21;9.98;;;3.17;;
47337;SDS011;33069;51.970;5.892;2022-09-09T17:07:48;7.85;;;4.43;;
47337;SDS011;33069;51.970;5.892;2022-09-09T17:10:14;7.85;;;4.70;;
47337;SDS011;33069;51.970;5.892;2022-09-09T17:12:39;8.38;;;4.57;;
47337;SDS011;33069;51.970;5.892;2022-09-09T17:15:08;11.48;;;5.18;;
47337;SDS011;33069;51.970;5.892;2022-09-09T17:17:35;7.85;;;4.53;;
47337;SDS011;33069;51.970;5.892;2022-09-09T17:20:00;6.15;;;4.28;;
47337;SDS011;33069;51.970;5.892;2022-09-09T17:22:27;6.53;;;3.92;;
47337;SDS011;33069;51.970;5.892;2022-09-09T17:24:53;6.32;;;4.43;;